createdAt,value
2018-05-23T00:00:27.520Z,12.70
2018-05-23T00:02:54.488Z,12.60
2018-05-23T00:05:21.465Z,12.60
2018-05-23T00:07:47.708Z,12.60
2018-05-23T00:10:13.914Z,12.60
2018-05-23T00:12:40.945Z,12.60
2018-05-23T00:15:07.721Z,12.50
2018-05-23T00:17:35.203Z,12.50
2018-05-23T00:20:01.424Z,12.50
2018-05-23T00:22:28.336Z,12.50
2018-05-23T00:24:54.956Z,12.40
2018-05-23T00:27:21.892Z,12.40
2018-05-23T00:29:48.116Z,12.40
2018-05-23T00:32:16.171Z,12.40
2018-05-23T00:34:43.122Z,12.40
2018-05-23T00:37:09.348Z,12.30
2018-05-23T00:39:36.752Z,12.30
2018-05-23T00:42:03.000Z,12.30
2018-05-23T00:44:29.626Z,12.30
2018-05-23T00:46:56.428Z,12.30
2018-05-23T00:49:23.937Z,12.20
2018-05-23T00:51:50.544Z,12.20
2018-05-23T00:54:17.496Z,12.30
2018-05-23T00:56:44.468Z,12.30
2018-05-23T00:59:11.492Z,12.30
2018-05-23T01:01:38.761Z,12.20
2018-05-23T01:04:04.979Z,12.20
2018-05-23T01:06:32.885Z,12.10
2018-05-23T01:08:59.129Z,12.10
2018-05-23T01:11:25.892Z,12.00
2018-05-23T01:13:52.108Z,11.90
2018-05-23T01:16:19.028Z,11.90
2018-05-23T01:18:45.990Z,11.80
2018-05-23T01:21:12.817Z,11.80
2018-05-23T01:23:40.387Z,11.80
2018-05-23T01:26:07.780Z,11.70
2018-05-23T01:28:33.993Z,11.70
2018-05-23T01:31:00.208Z,11.70
2018-05-23T01:33:27.188Z,11.70
2018-05-23T01:35:53.408Z,11.70
2018-05-23T01:38:19.729Z,11.70
2018-05-23T01:40:47.505Z,11.70
2018-05-23T01:43:14.477Z,11.70
2018-05-23T01:45:41.124Z,11.60
2018-05-23T01:48:08.049Z,11.70
2018-05-23T01:50:35.469Z,11.70
2018-05-23T01:53:01.716Z,11.60
2018-05-23T01:55:27.940Z,11.70
2018-05-23T01:57:54.681Z,11.70
2018-05-23T02:00:22.228Z,11.70
2018-05-23T02:02:48.443Z,11.70
2018-05-23T02:05:15.187Z,11.70
2018-05-23T02:07:41.407Z,11.70
2018-05-23T02:10:08.753Z,11.70
2018-05-23T02:12:35.713Z,11.70
2018-05-23T02:15:02.716Z,11.70
2018-05-23T02:17:28.976Z,11.70
2018-05-23T02:19:55.976Z,11.70
2018-05-23T02:22:23.928Z,11.70
2018-05-23T02:24:50.616Z,11.70
2018-05-23T02:27:16.837Z,11.70
2018-05-23T02:29:43.055Z,11.60
2018-05-23T02:32:09.328Z,11.60
2018-05-23T02:34:35.556Z,11.60
2018-05-23T02:37:01.848Z,11.60
2018-05-23T02:39:28.104Z,11.60
2018-05-23T02:41:54.306Z,11.50
2018-05-23T02:44:21.625Z,11.40
2018-05-23T02:47:03.677Z,11.40
2018-05-23T02:49:30.327Z,11.40
2018-05-23T02:51:56.562Z,11.40
2018-05-23T02:54:22.794Z,11.40
2018-05-23T02:56:49.060Z,11.40
2018-05-23T02:59:15.704Z,11.40
2018-05-23T03:01:42.553Z,11.40
2018-05-23T03:04:08.777Z,11.40
2018-05-23T03:06:35.472Z,11.40
2018-05-23T03:09:02.475Z,11.40
2018-05-23T03:11:43.649Z,11.30
2018-05-23T03:14:09.878Z,11.30
2018-05-23T03:16:36.691Z,11.30
2018-05-23T03:19:03.672Z,11.40
2018-05-23T03:21:30.374Z,11.40
2018-05-23T03:23:57.710Z,11.40
2018-05-23T03:26:25.408Z,11.40
2018-05-23T03:28:52.363Z,11.50
2018-05-23T03:31:19.378Z,11.50
2018-05-23T03:33:45.616Z,11.60
2018-05-23T03:36:11.841Z,11.60
2018-05-23T03:38:38.136Z,11.60
2018-05-23T03:41:05.134Z,11.70
2018-05-23T03:43:31.664Z,11.70
2018-05-23T03:45:58.300Z,11.80
2018-05-23T03:48:25.059Z,11.80
2018-05-23T03:50:51.290Z,11.90
2018-05-23T03:53:32.469Z,11.90
2018-05-23T03:55:58.673Z,11.90
2018-05-23T03:58:25.500Z,12.00
2018-05-23T04:01:05.547Z,12.00
2018-05-23T04:03:44.176Z,12.00
2018-05-23T04:06:21.953Z,12.00
2018-05-23T04:08:48.917Z,12.00
2018-05-23T04:11:16.362Z,12.00
2018-05-23T04:13:43.660Z,12.10
2018-05-23T04:16:09.876Z,12.00
2018-05-23T04:18:36.633Z,12.10
2018-05-23T04:21:03.315Z,12.00
2018-05-23T04:23:30.244Z,12.00
2018-05-23T04:25:56.984Z,12.10
2018-05-23T04:28:23.217Z,12.10
2018-05-23T04:30:49.441Z,12.00
2018-05-23T04:33:16.077Z,12.10
2018-05-23T04:35:42.309Z,12.00
2018-05-23T04:38:09.025Z,12.10
2018-05-23T04:40:36.553Z,12.30
2018-05-23T04:43:02.777Z,12.20
2018-05-23T04:45:29.583Z,12.40
2018-05-23T04:47:56.206Z,12.40
2018-05-23T04:50:23.167Z,12.60
2018-05-23T04:52:50.129Z,12.70
2018-05-23T04:55:16.754Z,12.70
2018-05-23T04:57:44.113Z,12.90
2018-05-23T05:00:11.069Z,13.10
2018-05-23T05:02:38.357Z,13.20
2018-05-23T05:05:04.605Z,13.20
2018-05-23T05:07:30.924Z,13.30
2018-05-23T05:09:57.252Z,13.40
2018-05-23T05:12:25.191Z,13.60
2018-05-23T05:14:51.429Z,13.70
2018-05-23T05:17:18.034Z,13.90
2018-05-23T05:19:44.231Z,14.00
2018-05-23T05:22:10.457Z,14.20
2018-05-23T05:24:37.753Z,14.40
2018-05-23T05:27:03.993Z,14.40
2018-05-23T05:29:30.217Z,14.50
2018-05-23T05:31:56.466Z,14.60
2018-05-23T05:34:22.681Z,14.60
2018-05-23T05:36:49.698Z,14.80
2018-05-23T05:39:17.468Z,15.00
2018-05-23T05:41:44.981Z,15.00
2018-05-23T05:44:11.529Z,15.00
2018-05-23T05:46:38.316Z,15.20
2018-05-23T05:49:04.945Z,15.30
2018-05-23T05:51:31.174Z,15.40
2018-05-23T05:53:58.066Z,15.50
2018-05-23T05:56:24.748Z,15.60
2018-05-23T05:58:51.409Z,15.60
2018-05-23T06:01:18.186Z,15.70
2018-05-23T06:03:45.161Z,15.90
2018-05-23T06:06:11.386Z,15.80
2018-05-23T06:08:38.040Z,15.90
2018-05-23T06:11:04.306Z,16.10
2018-05-23T06:13:30.952Z,16.20
2018-05-23T06:15:57.168Z,16.30
2018-05-23T06:18:23.381Z,16.30
2018-05-23T06:20:50.036Z,16.40
2018-05-23T06:23:17.661Z,16.50
2018-05-23T06:25:45.125Z,16.70
2018-05-23T06:28:12.101Z,16.80
2018-05-23T06:30:38.313Z,16.70
2018-05-23T06:33:05.706Z,16.90
2018-05-23T06:35:31.913Z,16.90
2018-05-23T06:37:59.329Z,17.10
2018-05-23T06:40:25.537Z,17.10
2018-05-23T06:42:51.781Z,17.10
2018-05-23T06:45:18.545Z,17.30
2018-05-23T06:47:45.945Z,17.40
2018-05-23T06:50:13.345Z,17.60
2018-05-23T06:52:40.153Z,17.60
2018-05-23T06:55:07.129Z,17.80
2018-05-23T06:57:33.836Z,17.80
2018-05-23T07:00:00.806Z,17.80
2018-05-23T07:02:27.033Z,17.80
2018-05-23T07:04:54.345Z,17.90
2018-05-23T07:07:21.210Z,17.90
2018-05-23T07:09:47.433Z,18.10
2018-05-23T07:12:14.164Z,18.10
2018-05-23T07:14:40.390Z,18.20
2018-05-23T07:17:06.605Z,18.30
2018-05-23T07:19:32.849Z,18.30
2018-05-23T07:21:59.073Z,18.40
2018-05-23T07:24:25.833Z,18.50
2018-05-23T07:26:52.653Z,18.50
2018-05-23T07:29:19.622Z,18.80
2018-05-23T07:31:46.473Z,18.80
2018-05-23T07:34:13.306Z,18.90
2018-05-23T07:36:39.535Z,18.90
2018-05-23T07:39:08.348Z,19.10
2018-05-23T07:41:34.937Z,19.10
2018-05-23T07:44:01.564Z,19.20
2018-05-23T07:46:28.921Z,19.30
2018-05-23T07:48:55.760Z,19.40
2018-05-23T07:51:22.461Z,19.60
2018-05-23T07:53:49.425Z,19.60
2018-05-23T07:56:16.249Z,19.60
2018-05-23T07:58:43.821Z,19.70
2018-05-23T08:01:10.788Z,19.70
2018-05-23T08:03:38.026Z,19.70
2018-05-23T08:06:05.001Z,19.90
2018-05-23T08:08:31.871Z,19.80
2018-05-23T08:10:58.089Z,20.00
2018-05-23T08:13:24.297Z,20.10
2018-05-23T08:15:51.297Z,20.20
2018-05-23T08:18:17.537Z,20.20
2018-05-23T08:20:43.842Z,20.30
2018-05-23T08:23:11.393Z,20.40
2018-05-23T08:25:37.613Z,20.50
2018-05-23T08:28:05.388Z,20.70
2018-05-23T08:30:33.165Z,20.80
2018-05-23T08:32:59.833Z,20.80
2018-05-23T08:35:26.054Z,20.80
2018-05-23T08:37:52.285Z,20.90
2018-05-23T08:40:18.523Z,21.00
2018-05-23T08:42:44.745Z,21.00
2018-05-23T08:45:11.441Z,21.10
2018-05-23T08:47:38.099Z,21.10
2018-05-23T08:50:04.876Z,21.20
2018-05-23T08:52:32.369Z,21.30
2018-05-23T08:54:58.580Z,21.20
2018-05-23T08:57:25.153Z,21.40
2018-05-23T08:59:51.393Z,21.40
2018-05-23T09:02:18.057Z,21.50
2018-05-23T09:04:44.369Z,21.60
2018-05-23T09:07:11.004Z,21.60
2018-05-23T09:09:37.234Z,21.70
2018-05-23T09:12:03.458Z,21.60
2018-05-23T09:14:30.380Z,21.70
2018-05-23T09:16:57.369Z,21.80
2018-05-23T09:19:23.611Z,21.80
2018-05-23T09:21:49.872Z,21.90
2018-05-23T09:24:17.066Z,22.00
2018-05-23T09:26:44.728Z,22.10
2018-05-23T09:29:12.400Z,22.20
2018-05-23T09:31:39.356Z,22.20
2018-05-23T09:34:05.612Z,22.20
2018-05-23T09:36:31.871Z,22.20
2018-05-23T09:38:58.112Z,22.30
2018-05-23T09:41:24.419Z,22.40
2018-05-23T09:43:51.548Z,22.40
2018-05-23T09:46:17.776Z,22.40
2018-05-23T09:48:45.246Z,22.60
2018-05-23T09:51:12.452Z,22.60
2018-05-23T09:53:39.132Z,22.60
2018-05-23T09:56:06.092Z,22.70
2018-05-23T09:58:32.672Z,22.70
2018-05-23T10:00:58.896Z,22.50
2018-05-23T10:03:26.532Z,22.60
2018-05-23T10:05:53.499Z,22.80
2018-05-23T10:08:19.737Z,22.70
2018-05-23T10:10:46.448Z,22.90
2018-05-23T10:13:13.416Z,22.90
2018-05-23T10:15:40.401Z,22.90
2018-05-23T10:18:06.651Z,22.80
2018-05-23T10:20:34.366Z,23.10
2018-05-23T10:23:01.341Z,23.10
2018-05-23T10:25:28.268Z,23.10
2018-05-23T10:27:55.763Z,23.30
2018-05-23T10:30:21.960Z,23.30
2018-05-23T10:32:48.921Z,23.40
2018-05-23T10:35:15.173Z,23.40
2018-05-23T10:37:41.393Z,23.50
2018-05-23T10:40:07.708Z,23.50
2018-05-23T10:42:35.074Z,23.70
2018-05-23T10:45:02.376Z,23.80
2018-05-23T10:47:29.386Z,23.80
2018-05-23T10:49:56.363Z,23.60
2018-05-23T10:52:22.981Z,23.60
2018-05-23T10:54:49.937Z,24.00
2018-05-23T10:57:18.015Z,24.00
2018-05-23T10:59:44.969Z,23.90
2018-05-23T11:02:11.803Z,23.90
2018-05-23T11:04:38.775Z,23.90
2018-05-23T11:07:05.357Z,23.90
2018-05-23T11:09:31.577Z,24.20
2018-05-23T11:11:57.787Z,24.40
2018-05-23T11:14:24.817Z,24.70
2018-05-23T11:16:51.777Z,24.80
2018-05-23T11:19:17.987Z,24.80
2018-05-23T11:21:44.809Z,25.10
2018-05-23T11:24:11.918Z,25.00
2018-05-23T11:26:38.594Z,25.20
2018-05-23T11:29:04.817Z,25.30
2018-05-23T11:31:31.567Z,25.10
2018-05-23T11:33:57.786Z,24.90
2018-05-23T11:36:23.996Z,24.90
2018-05-23T11:38:50.993Z,24.90
2018-05-23T11:41:17.640Z,24.90
2018-05-23T11:43:44.768Z,24.90
2018-05-23T11:46:11.780Z,24.80
2018-05-23T11:48:38.661Z,24.80
2018-05-23T11:51:04.920Z,24.80
2018-05-23T11:53:31.172Z,25.00
2018-05-23T11:55:57.414Z,25.10
2018-05-23T11:58:24.200Z,25.20
2018-05-23T12:00:51.785Z,25.90
2018-05-23T12:03:18.716Z,25.80
2018-05-23T12:05:46.169Z,25.90
2018-05-23T12:08:13.593Z,25.90
2018-05-23T12:10:39.965Z,25.90
2018-05-23T12:13:07.545Z,26.10
2018-05-23T12:15:33.794Z,26.10
2018-05-23T12:18:00.027Z,26.40
2018-05-23T12:20:26.689Z,26.10
2018-05-23T12:22:53.369Z,25.80
2018-05-23T12:25:20.089Z,25.80
2018-05-23T12:27:47.234Z,26.00
2018-05-23T12:30:13.444Z,26.10
2018-05-23T12:32:39.660Z,26.30
2018-05-23T12:35:06.667Z,26.50
2018-05-23T12:37:32.876Z,26.50
2018-05-23T12:39:59.182Z,26.60
2018-05-23T12:42:26.627Z,26.90
2018-05-23T12:44:53.385Z,26.80
2018-05-23T12:47:20.788Z,26.80
2018-05-23T12:49:46.996Z,26.80
2018-05-23T12:52:13.888Z,27.00
2018-05-23T12:54:40.113Z,27.00
2018-05-23T12:57:07.592Z,27.20
2018-05-23T12:59:34.792Z,27.30
2018-05-23T13:02:01.568Z,27.20
2018-05-23T13:04:27.788Z,26.90
2018-05-23T13:06:54.025Z,26.60
2018-05-23T13:09:20.278Z,26.50
2018-05-23T13:11:46.500Z,26.20
2018-05-23T13:14:12.800Z,26.00
2018-05-23T13:16:40.228Z,25.80
2018-05-23T13:19:07.209Z,25.80
2018-05-23T13:21:34.169Z,25.40
2018-05-23T13:24:01.689Z,25.40
2018-05-23T13:26:28.715Z,25.30
2018-05-23T13:28:54.929Z,25.30
2018-05-23T13:31:21.134Z,25.10
2018-05-23T13:33:47.372Z,25.00
2018-05-23T13:36:14.828Z,24.60
2018-05-23T13:38:41.041Z,24.60
2018-05-23T13:41:08.435Z,24.30
2018-05-23T13:43:36.108Z,23.40
2018-05-23T13:46:03.093Z,22.70
2018-05-23T13:48:29.771Z,22.60
2018-05-23T13:50:57.481Z,21.70
2018-05-23T13:53:24.032Z,21.80
2018-05-23T13:55:50.770Z,21.40
2018-05-23T13:58:17.458Z,20.80
2018-05-23T14:00:43.682Z,20.60
2018-05-23T14:03:10.524Z,20.40
2018-05-23T14:05:36.752Z,20.30
2018-05-23T14:08:02.992Z,19.90
2018-05-23T14:10:29.228Z,19.80
2018-05-23T14:12:55.464Z,19.70
2018-05-23T14:15:22.188Z,19.60
2018-05-23T14:17:48.764Z,19.70
2018-05-23T14:20:15.649Z,19.70
2018-05-23T14:22:42.623Z,19.50
2018-05-23T14:25:09.409Z,19.50
2018-05-23T14:27:35.636Z,19.40
2018-05-23T14:30:01.896Z,19.40
2018-05-23T14:32:28.140Z,19.40
2018-05-23T14:34:55.108Z,19.50
2018-05-23T14:37:22.565Z,19.60
2018-05-23T14:39:50.347Z,19.70
2018-05-23T14:42:17.106Z,19.60
2018-05-23T14:44:44.241Z,19.70
2018-05-23T14:47:11.707Z,19.70
2018-05-23T14:49:38.679Z,19.70
2018-05-23T14:52:05.497Z,19.80
2018-05-23T14:54:32.468Z,19.80
2018-05-23T14:56:59.280Z,19.80
2018-05-23T14:59:26.249Z,19.80
2018-05-23T15:01:53.838Z,19.70
2018-05-23T15:04:20.060Z,19.70
2018-05-23T15:06:46.272Z,19.70
2018-05-23T15:09:13.260Z,19.60
2018-05-23T15:11:40.036Z,19.60
2018-05-23T15:14:06.278Z,19.60
2018-05-23T15:16:33.089Z,19.50
2018-05-23T15:18:59.337Z,19.50
2018-05-23T15:21:26.337Z,19.40
2018-05-23T15:23:53.905Z,19.60
2018-05-23T15:26:20.872Z,19.60
2018-05-23T15:28:47.762Z,19.50
2018-05-23T15:31:14.661Z,19.60
2018-05-23T15:33:41.640Z,19.70
2018-05-23T15:36:08.432Z,19.70
2018-05-23T15:38:36.411Z,19.90
2018-05-23T15:41:02.730Z,20.00
2018-05-23T15:43:29.553Z,20.10
2018-05-23T15:45:56.476Z,20.70
2018-05-23T15:48:24.088Z,21.30
2018-05-23T15:50:51.265Z,21.50
2018-05-23T15:53:20.054Z,22.30
2018-05-23T15:55:47.930Z,22.70
2018-05-23T15:58:14.790Z,22.70
2018-05-23T16:00:42.593Z,23.60
2018-05-23T16:03:09.320Z,23.50
2018-05-23T16:05:35.755Z,23.60
2018-05-23T16:08:02.108Z,23.30
2018-05-23T16:10:29.251Z,23.00
2018-05-23T16:12:56.584Z,22.50
2018-05-23T16:15:23.613Z,22.20
2018-05-23T16:17:50.025Z,22.20
2018-05-23T16:20:16.778Z,21.90
2018-05-23T16:22:43.868Z,21.80
2018-05-23T16:25:11.588Z,21.60
2018-05-23T16:27:38.555Z,21.40
2018-05-23T16:30:06.206Z,21.20
2018-05-23T16:32:32.492Z,20.90
2018-05-23T16:35:00.006Z,20.70
2018-05-23T16:37:26.960Z,20.70
2018-05-23T16:39:53.880Z,20.50
2018-05-23T16:42:20.963Z,20.10
2018-05-23T16:44:47.929Z,20.10
2018-05-23T16:47:14.806Z,20.00
2018-05-23T16:49:43.819Z,19.90
2018-05-23T16:52:11.674Z,19.70
2018-05-23T16:54:38.886Z,19.70
2018-05-23T16:57:06.143Z,19.70
2018-05-23T16:59:32.444Z,19.70
2018-05-23T17:01:59.598Z,19.60
2018-05-23T17:04:26.701Z,19.60
2018-05-23T17:06:54.317Z,19.50
2018-05-23T17:09:21.610Z,19.60
2018-05-23T17:11:48.868Z,19.60
2018-05-23T17:14:15.272Z,19.60
2018-05-23T17:16:42.884Z,19.60
2018-05-23T17:19:09.710Z,19.60
2018-05-23T17:21:36.646Z,19.70
2018-05-23T17:24:03.619Z,19.70
2018-05-23T17:26:29.941Z,19.70
2018-05-23T17:28:56.833Z,19.80
2018-05-23T17:31:23.961Z,19.80
2018-05-23T17:33:50.398Z,19.60
2018-05-23T17:36:16.787Z,19.60
2018-05-23T17:38:43.774Z,19.40
2018-05-23T17:41:11.018Z,19.30
2018-05-23T17:43:38.954Z,19.00
2018-05-23T17:46:05.761Z,19.00
2018-05-23T17:48:32.792Z,18.90
2018-05-23T17:50:59.993Z,18.90
2018-05-23T17:53:27.024Z,18.80
2018-05-23T17:55:53.328Z,18.60
2018-05-23T17:58:20.820Z,18.40
2018-05-23T18:00:48.077Z,18.30
2018-05-23T18:03:15.851Z,18.30
2018-05-23T18:05:42.908Z,18.30
2018-05-23T18:08:09.723Z,18.30
2018-05-23T18:10:37.112Z,18.10
2018-05-23T18:13:04.163Z,18.10
2018-05-23T18:15:31.339Z,18.10
2018-05-23T18:17:58.272Z,18.00
2018-05-23T18:20:25.349Z,17.90
2018-05-23T18:22:51.808Z,17.70
2018-05-23T18:25:18.813Z,17.60
2018-05-23T18:27:45.307Z,17.60
2018-05-23T18:30:13.029Z,17.40
2018-05-23T18:32:40.177Z,17.40
2018-05-23T18:35:06.474Z,17.30
2018-05-23T18:37:34.938Z,17.20
2018-05-23T18:40:01.564Z,17.10
2018-05-23T18:42:28.129Z,17.10
2018-05-23T18:44:55.225Z,17.00
2018-05-23T18:47:21.881Z,16.90
2018-05-23T18:49:48.613Z,16.80
2018-05-23T18:52:30.473Z,16.70
2018-05-23T18:54:57.272Z,16.60
2018-05-23T18:57:23.832Z,16.60
2018-05-23T18:59:50.598Z,16.60
2018-05-23T19:02:17.783Z,16.60
2018-05-23T19:04:45.588Z,16.40
2018-05-23T19:07:12.148Z,16.40
2018-05-23T19:09:38.404Z,16.40
2018-05-23T19:12:05.977Z,16.40
2018-05-23T19:14:32.942Z,16.40
2018-05-23T19:16:59.912Z,16.30
2018-05-23T19:19:26.170Z,16.30
2018-05-23T19:21:52.973Z,16.20
2018-05-23T19:24:19.812Z,16.20
2018-05-23T19:26:47.556Z,16.10
2018-05-23T19:29:13.807Z,16.10
2018-05-23T19:31:41.004Z,16.10
2018-05-23T19:34:07.785Z,16.10
2018-05-23T19:36:35.041Z,16.10
2018-05-23T19:39:02.049Z,16.00
2018-05-23T19:41:28.798Z,16.00
2018-05-23T19:43:55.529Z,16.00
2018-05-23T19:46:23.194Z,16.10
2018-05-23T19:48:50.496Z,16.10
2018-05-23T19:51:17.056Z,16.10
2018-05-23T19:53:43.728Z,16.10
2018-05-23T19:56:10.707Z,16.00
2018-05-23T19:58:37.636Z,16.00
2018-05-23T20:01:05.105Z,16.00
2018-05-23T20:03:32.785Z,16.00
2018-05-23T20:05:59.042Z,16.00
2018-05-23T20:08:25.419Z,15.90
2018-05-23T20:10:52.449Z,16.00
2018-05-23T20:13:19.251Z,16.00
2018-05-23T20:15:45.833Z,16.00
2018-05-23T20:18:12.064Z,15.90
2018-05-23T20:20:38.284Z,15.90
2018-05-23T20:23:04.548Z,15.90
2018-05-23T20:25:31.596Z,15.80
2018-05-23T20:27:57.817Z,15.70
2018-05-23T20:30:24.062Z,15.70
2018-05-23T20:32:50.310Z,15.70
2018-05-23T20:35:17.022Z,15.70
2018-05-23T20:37:43.820Z,15.70
2018-05-23T20:40:11.502Z,15.70
2018-05-23T20:42:37.724Z,15.70
2018-05-23T20:45:05.211Z,15.80
2018-05-23T20:47:31.818Z,15.70
2018-05-23T20:49:58.425Z,15.80
2018-05-23T20:52:24.656Z,15.80
2018-05-23T20:54:51.542Z,15.80
2018-05-23T20:57:18.250Z,15.80
2018-05-23T20:59:45.588Z,15.90
2018-05-23T21:02:12.185Z,15.90
2018-05-23T21:04:38.414Z,15.90
2018-05-23T21:07:05.137Z,16.00
2018-05-23T21:09:31.356Z,16.00
2018-05-23T21:11:58.873Z,15.90
2018-05-23T21:14:26.236Z,15.90
2018-05-23T21:16:53.817Z,15.90
2018-05-23T21:19:20.136Z,16.00
2018-05-23T21:21:47.308Z,15.90
2018-05-23T21:24:14.684Z,15.90
2018-05-23T21:26:41.505Z,15.90
2018-05-23T21:29:08.494Z,15.90
2018-05-23T21:31:34.718Z,15.90
2018-05-23T21:34:00.973Z,16.00
2018-05-23T21:36:28.390Z,16.00
2018-05-23T21:38:56.264Z,16.00
2018-05-23T21:41:23.245Z,16.10
2018-05-23T21:43:50.777Z,16.10
2018-05-23T21:46:18.040Z,16.00
2018-05-23T21:48:45.351Z,16.00
2018-05-23T21:51:12.067Z,16.00
2018-05-23T21:53:38.732Z,16.00
2018-05-23T21:56:05.474Z,16.00
2018-05-23T21:58:32.588Z,16.00
2018-05-23T22:00:58.812Z,15.90
2018-05-23T22:03:25.781Z,15.90
2018-05-23T22:05:52.040Z,15.80
2018-05-23T22:08:18.272Z,15.80
2018-05-23T22:10:44.699Z,15.80
2018-05-23T22:13:11.628Z,15.80
2018-05-23T22:15:39.241Z,15.70
2018-05-23T22:18:05.474Z,15.70
2018-05-23T22:20:32.269Z,15.60
2018-05-23T22:22:59.244Z,15.50
2018-05-23T22:25:25.960Z,15.50
2018-05-23T22:27:52.929Z,15.50
2018-05-23T22:30:19.191Z,15.50
2018-05-23T22:32:45.833Z,15.40
2018-05-23T22:35:12.076Z,15.40
2018-05-23T22:37:38.801Z,15.40
2018-05-23T22:40:05.033Z,15.30
2018-05-23T22:42:31.252Z,15.30
2018-05-23T22:44:57.992Z,15.20
2018-05-23T22:47:25.490Z,15.20
2018-05-23T22:49:52.097Z,15.20
2018-05-23T22:52:19.073Z,15.20
2018-05-23T22:54:45.709Z,15.20
2018-05-23T22:57:12.700Z,15.20
2018-05-23T22:59:39.332Z,15.20
2018-05-23T23:02:05.561Z,15.30
2018-05-23T23:04:31.788Z,15.30
2018-05-23T23:06:58.065Z,15.30
2018-05-23T23:09:24.958Z,15.30
2018-05-23T23:11:53.113Z,15.30
2018-05-23T23:14:20.881Z,15.30
2018-05-23T23:16:48.852Z,15.30
2018-05-23T23:19:15.814Z,15.40
2018-05-23T23:21:42.044Z,15.30
2018-05-23T23:24:09.065Z,15.30
2018-05-23T23:26:35.680Z,15.30
2018-05-23T23:29:01.921Z,15.30
2018-05-23T23:31:28.682Z,15.20
2018-05-23T23:33:55.521Z,15.30
2018-05-23T23:36:21.739Z,15.30
2018-05-23T23:38:47.953Z,15.20
2018-05-23T23:41:14.193Z,15.20
2018-05-23T23:43:41.005Z,15.20
2018-05-23T23:46:08.572Z,15.20
2018-05-23T23:48:36.089Z,15.20
2018-05-23T23:51:02.791Z,15.20
2018-05-23T23:53:30.177Z,15.30
2018-05-23T23:55:56.393Z,15.20
2018-05-23T23:58:23.364Z,15.20
